createdAt,value
2022-09-12T00:00:15.773Z,22.39
2022-09-12T00:02:42.360Z,22.49
2022-09-12T00:05:09.061Z,22.32
2022-09-12T00:07:35.821Z,22.51
2022-09-12T00:10:02.383Z,22.33
2022-09-12T00:12:28.921Z,22.55
2022-09-12T00:14:55.487Z,22.59
2022-09-12T00:17:22.008Z,22.69
2022-09-12T00:19:48.527Z,22.64
2022-09-12T00:22:15.133Z,22.88
2022-09-12T00:24:41.666Z,22.67
2022-09-12T00:27:08.222Z,23.01
2022-09-12T00:29:34.871Z,23.06
2022-09-12T00:32:01.724Z,23.03
2022-09-12T00:34:28.317Z,22.81
2022-09-12T00:36:54.894Z,22.68
2022-09-12T00:39:21.398Z,22.51
2022-09-12T00:41:47.867Z,22.46
2022-09-12T00:44:23.571Z,22.36
2022-09-12T00:47:04.988Z,22.27
2022-09-12T00:49:46.347Z,22.15
2022-09-12T00:52:31.834Z,22.14
2022-09-12T00:55:05.424Z,22.01
2022-09-12T00:57:41.625Z,21.89
2022-09-12T01:00:15.796Z,22.06
2022-09-12T01:02:59.846Z,21.86
2022-09-12T01:05:29.549Z,21.65
2022-09-12T01:07:57.577Z,21.95
2022-09-12T01:10:24.697Z,21.96
2022-09-12T01:12:51.264Z,21.75
2022-09-12T01:15:17.899Z,21.81
2022-09-12T01:17:59.700Z,21.47
2022-09-12T01:20:57.954Z,21.93
2022-09-12T01:23:45.346Z,21.96
2022-09-12T01:26:49.587Z,21.36
2022-09-12T01:29:40.831Z,21.87
2022-09-12T01:32:29.041Z,21.89
2022-09-12T01:35:08.362Z,21.90
2022-09-12T01:37:42.707Z,21.91
2022-09-12T01:40:19.149Z,21.86
2022-09-12T01:43:09.699Z,21.72
2022-09-12T01:45:45.990Z,21.82
2022-09-12T01:48:24.489Z,21.84
2022-09-12T01:50:56.859Z,21.55
2022-09-12T01:53:29.709Z,21.69
2022-09-12T01:56:02.985Z,21.53
2022-09-12T01:58:38.864Z,21.62
2022-09-12T02:01:15.706Z,21.52
2022-09-12T02:03:53.715Z,21.54
2022-09-12T02:06:33.460Z,21.49
2022-09-12T02:09:06.837Z,21.45
2022-09-12T02:11:38.625Z,21.42
2022-09-12T02:14:21.661Z,21.38
2022-09-12T02:17:13.082Z,21.49
2022-09-12T02:19:49.341Z,21.45
2022-09-12T02:22:19.959Z,21.42
2022-09-12T02:24:52.468Z,21.14
2022-09-12T02:27:43.171Z,21.22
2022-09-12T02:30:10.787Z,21.13
2022-09-12T02:32:44.458Z,19.94
2022-09-12T02:35:42.436Z,21.15
2022-09-12T02:38:19.978Z,21.11
2022-09-12T02:40:46.940Z,21.19
2022-09-12T02:43:13.446Z,21.17
2022-09-12T02:45:40.250Z,21.04
2022-09-12T02:48:22.461Z,20.70
2022-09-12T02:50:49.285Z,21.05
2022-09-12T02:53:16.111Z,21.05
2022-09-12T02:55:43.290Z,20.92
2022-09-12T02:58:23.528Z,20.94
2022-09-12T03:01:23.050Z,21.03
2022-09-12T03:03:58.781Z,21.01
2022-09-12T03:07:00.548Z,20.92
2022-09-12T03:09:48.599Z,21.11
2022-09-12T03:12:30.325Z,21.05
2022-09-12T03:15:12.097Z,20.68
2022-09-12T03:18:11.488Z,20.66
2022-09-12T03:21:09.715Z,21.05
2022-09-12T03:24:17.928Z,21.09
2022-09-12T03:26:56.455Z,21.24
2022-09-12T03:29:26.279Z,21.13
2022-09-12T03:31:55.266Z,21.33
2022-09-12T03:34:23.463Z,21.23
2022-09-12T03:36:50.511Z,21.29
2022-09-12T03:39:17.329Z,21.00
2022-09-12T03:41:43.901Z,21.03
2022-09-12T03:44:10.455Z,21.08
2022-09-12T03:46:37.171Z,20.85
2022-09-12T03:49:03.922Z,20.87
2022-09-12T03:51:31.156Z,20.91
2022-09-12T03:53:57.673Z,20.84
2022-09-12T03:56:24.221Z,19.90
2022-09-12T03:58:50.710Z,20.67
2022-09-12T04:01:19.270Z,19.85
2022-09-12T04:03:50.703Z,20.57
2022-09-12T04:06:20.088Z,20.08
2022-09-12T04:08:54.774Z,20.24
2022-09-12T04:11:22.511Z,20.89
2022-09-12T04:13:49.759Z,20.76
2022-09-12T04:16:17.832Z,20.93
2022-09-12T04:18:44.928Z,21.00
2022-09-12T04:21:16.754Z,20.23
2022-09-12T04:23:43.854Z,20.92
2022-09-12T04:26:11.541Z,20.83
2022-09-12T04:28:38.687Z,20.80
2022-09-12T04:31:08.255Z,21.10
2022-09-12T04:33:36.240Z,21.16
2022-09-12T04:36:05.231Z,21.18
2022-09-12T04:38:32.278Z,20.95
2022-09-12T04:40:58.933Z,21.19
2022-09-12T04:43:25.579Z,21.13
2022-09-12T04:45:52.189Z,21.21
2022-09-12T04:48:18.898Z,21.29
2022-09-12T04:50:45.410Z,21.55
2022-09-12T04:53:12.041Z,21.61
2022-09-12T04:55:38.625Z,21.74
2022-09-12T04:58:05.225Z,21.74
2022-09-12T05:00:31.752Z,21.59
2022-09-12T05:02:58.321Z,21.64
2022-09-12T05:05:24.970Z,21.34
2022-09-12T05:07:51.550Z,21.37
2022-09-12T05:10:18.223Z,21.24
2022-09-12T05:12:44.716Z,21.11
2022-09-12T05:15:11.658Z,21.17
2022-09-12T05:17:38.290Z,21.10
2022-09-12T05:20:05.162Z,20.99
2022-09-12T05:22:31.748Z,20.62
2022-09-12T05:24:58.301Z,20.69
2022-09-12T05:27:24.830Z,20.91
2022-09-12T05:29:51.587Z,20.90
2022-09-12T05:32:18.206Z,21.00
2022-09-12T05:34:45.171Z,21.04
2022-09-12T05:37:11.718Z,20.99
2022-09-12T05:39:38.392Z,20.83
2022-09-12T05:42:06.114Z,20.74
2022-09-12T05:44:35.998Z,20.79
2022-09-12T05:47:02.580Z,20.62
2022-09-12T05:49:30.224Z,20.77
2022-09-12T05:51:56.773Z,21.06
2022-09-12T05:54:24.355Z,21.13
2022-09-12T05:56:52.180Z,21.16
2022-09-12T05:59:21.048Z,21.01
2022-09-12T06:01:48.686Z,20.86
2022-09-12T06:04:16.110Z,21.12
2022-09-12T06:06:45.116Z,21.08
2022-09-12T06:09:13.459Z,21.09
2022-09-12T06:11:43.485Z,20.75
2022-09-12T06:14:12.105Z,21.21
2022-09-12T06:16:39.398Z,20.90
2022-09-12T06:19:15.408Z,21.24
2022-09-12T06:21:42.511Z,21.34
2022-09-12T06:24:09.377Z,21.22
2022-09-12T06:26:36.799Z,21.29
2022-09-12T06:29:03.873Z,21.46
2022-09-12T06:31:36.038Z,21.52
2022-09-12T06:34:05.326Z,20.85
2022-09-12T06:36:34.297Z,21.64
2022-09-12T06:39:28.445Z,21.48
2022-09-12T06:41:57.220Z,21.68
2022-09-12T06:44:23.747Z,21.74
2022-09-12T06:46:50.626Z,21.73
2022-09-12T06:49:17.908Z,21.96
2022-09-12T06:51:44.802Z,21.91
2022-09-12T06:54:15.692Z,22.00
2022-09-12T06:56:42.887Z,22.24
2022-09-12T06:59:09.687Z,22.17
2022-09-12T07:01:36.373Z,22.27
2022-09-12T07:04:04.221Z,22.21
2022-09-12T07:06:38.054Z,22.52
2022-09-12T07:09:07.035Z,22.57
2022-09-12T07:11:36.559Z,22.67
2022-09-12T07:14:05.024Z,22.40
2022-09-12T07:16:34.218Z,22.72
2022-09-12T07:19:02.436Z,22.71
2022-09-12T07:21:29.737Z,22.85
2022-09-12T07:23:58.039Z,22.71
2022-09-12T07:26:26.909Z,23.02
2022-09-12T07:29:00.696Z,23.18
2022-09-12T07:31:39.633Z,23.34
2022-09-12T07:34:06.900Z,23.59
2022-09-12T07:36:33.420Z,23.42
2022-09-12T07:39:00.294Z,23.78
2022-09-12T07:41:29.369Z,23.61
2022-09-12T07:43:58.168Z,24.09
2022-09-12T07:46:28.423Z,24.10
2022-09-12T07:48:57.372Z,24.15
2022-09-12T07:51:28.233Z,24.08
2022-09-12T07:53:56.424Z,23.99
2022-09-12T07:56:29.360Z,24.34
2022-09-12T07:58:59.527Z,24.27
2022-09-12T08:01:26.601Z,24.20
2022-09-12T08:04:00.701Z,24.10
2022-09-12T08:06:31.069Z,24.00
2022-09-12T08:08:59.201Z,23.63
2022-09-12T08:11:28.253Z,23.93
2022-09-12T08:13:57.237Z,24.10
2022-09-12T08:16:26.924Z,24.17
2022-09-12T08:18:53.799Z,24.20
2022-09-12T08:21:30.780Z,24.21
2022-09-12T08:24:01.089Z,24.28
2022-09-12T08:26:28.474Z,24.28
2022-09-12T08:28:55.253Z,23.99
2022-09-12T08:31:23.860Z,24.30
2022-09-12T08:33:50.999Z,24.19
2022-09-12T08:36:20.978Z,24.37
2022-09-12T08:38:50.467Z,24.51
2022-09-12T08:41:38.843Z,24.49
2022-09-12T08:44:17.423Z,24.52
2022-09-12T08:46:47.096Z,24.50
2022-09-12T08:49:25.578Z,24.57
2022-09-12T08:51:52.636Z,24.75
2022-09-12T08:54:24.104Z,24.59
2022-09-12T08:56:51.172Z,24.95
2022-09-12T08:59:17.772Z,24.58
2022-09-12T09:01:45.707Z,25.07
2022-09-12T09:04:32.180Z,25.40
2022-09-12T09:07:04.603Z,25.54
2022-09-12T09:09:37.248Z,25.82
2022-09-12T09:12:28.481Z,25.65
2022-09-12T09:15:05.309Z,25.54
2022-09-12T09:17:50.074Z,25.48
2022-09-12T09:20:28.782Z,25.57
2022-09-12T09:23:15.515Z,25.60
2022-09-12T09:25:50.988Z,25.58
2022-09-12T09:28:31.914Z,25.62
2022-09-12T09:30:58.486Z,25.73
2022-09-12T09:33:31.046Z,24.82
2022-09-12T09:36:17.366Z,26.40
2022-09-12T09:39:13.548Z,26.22
2022-09-12T09:41:53.330Z,26.50
2022-09-12T09:44:20.275Z,26.61
2022-09-12T09:46:54.262Z,26.19
2022-09-12T09:49:22.360Z,26.32
2022-09-12T09:51:49.426Z,26.38
2022-09-12T09:54:24.474Z,26.78
2022-09-12T09:56:51.474Z,26.60
2022-09-12T09:59:31.584Z,26.98
2022-09-12T10:02:03.800Z,26.87
2022-09-12T10:04:36.018Z,27.07
2022-09-12T10:07:06.309Z,27.12
2022-09-12T10:09:35.101Z,27.38
2022-09-12T10:12:20.413Z,27.19
2022-09-12T10:14:58.283Z,27.38
2022-09-12T10:17:51.364Z,27.35
2022-09-12T10:20:41.677Z,27.50
2022-09-12T10:23:35.208Z,27.52
2022-09-12T10:26:04.648Z,27.32
2022-09-12T10:28:43.444Z,26.90
2022-09-12T10:31:15.684Z,27.91
2022-09-12T10:33:47.451Z,28.17
2022-09-12T10:36:15.723Z,28.25
2022-09-12T10:38:49.917Z,28.39
2022-09-12T10:41:16.956Z,28.34
2022-09-12T10:43:44.004Z,28.36
2022-09-12T10:46:19.681Z,28.51
2022-09-12T10:48:50.941Z,28.13
2022-09-12T10:51:28.444Z,29.03
2022-09-12T10:54:02.331Z,28.70
2022-09-12T10:56:53.466Z,28.59
2022-09-12T10:59:34.302Z,28.94
2022-09-12T11:02:46.669Z,28.52
2022-09-12T11:05:36.607Z,28.52
2022-09-12T11:08:55.794Z,28.42
2022-09-12T11:11:57.827Z,28.25
2022-09-12T11:14:36.848Z,28.41
2022-09-12T11:17:07.531Z,28.57
2022-09-12T11:19:57.190Z,28.70
2022-09-12T11:22:32.769Z,28.82
2022-09-12T11:25:20.566Z,29.02
2022-09-12T11:27:53.210Z,29.26
2022-09-12T11:30:19.848Z,29.03
2022-09-12T11:33:08.241Z,28.96
2022-09-12T11:35:50.681Z,29.09
2022-09-12T11:38:33.683Z,28.65
2022-09-12T11:41:07.328Z,28.55
2022-09-12T11:43:45.946Z,28.59
2022-09-12T11:46:38.956Z,29.10
2022-09-12T11:49:15.613Z,28.84
2022-09-12T11:51:50.863Z,28.22
2022-09-12T11:54:36.738Z,29.68
2022-09-12T11:57:15.391Z,29.54
2022-09-12T11:59:51.979Z,29.78
2022-09-12T12:02:27.715Z,29.81
2022-09-12T12:05:40.750Z,30.20
2022-09-12T12:08:08.283Z,30.25
2022-09-12T12:10:44.177Z,30.28
2022-09-12T12:13:30.714Z,30.01
2022-09-12T12:16:04.106Z,29.98
2022-09-12T12:18:33.155Z,29.81
2022-09-12T12:21:21.688Z,29.78
2022-09-12T12:24:13.035Z,29.52
2022-09-12T12:26:44.634Z,29.22
2022-09-12T12:29:17.390Z,28.77
2022-09-12T12:31:59.347Z,29.32
2022-09-12T12:34:31.924Z,29.03
2022-09-12T12:37:19.899Z,29.07
2022-09-12T12:39:56.291Z,28.90
2022-09-12T12:42:38.333Z,28.90
2022-09-12T12:45:20.014Z,28.77
2022-09-12T12:47:54.477Z,28.50
2022-09-12T12:50:26.335Z,28.51
2022-09-12T12:52:54.861Z,28.81
2022-09-12T12:55:38.875Z,28.87
2022-09-12T12:58:24.673Z,28.93
2022-09-12T13:01:07.274Z,28.57
2022-09-12T13:03:34.728Z,28.08
2022-09-12T13:06:05.422Z,28.00
2022-09-12T13:08:35.384Z,28.00
2022-09-12T13:11:27.339Z,27.97
2022-09-12T13:14:00.287Z,28.02
2022-09-12T13:16:37.672Z,28.16
2022-09-12T13:19:29.311Z,27.88
2022-09-12T13:21:57.385Z,27.86
2022-09-12T13:24:23.978Z,27.90
2022-09-12T13:26:50.873Z,27.77
2022-09-12T13:29:22.621Z,27.46
2022-09-12T13:31:53.551Z,27.84
2022-09-12T13:34:41.958Z,28.09
2022-09-12T13:37:31.655Z,27.82
2022-09-12T13:40:24.258Z,28.06
2022-09-12T13:43:17.747Z,27.97
2022-09-12T13:45:47.005Z,27.98
2022-09-12T13:48:20.755Z,27.84
2022-09-12T13:50:56.696Z,27.90
2022-09-12T13:53:28.828Z,27.91
2022-09-12T13:55:59.103Z,28.18
2022-09-12T13:58:28.421Z,27.27
2022-09-12T14:01:16.100Z,27.90
2022-09-12T14:04:09.555Z,27.45
2022-09-12T14:06:44.053Z,27.77
2022-09-12T14:09:29.881Z,27.70
2022-09-12T14:11:57.770Z,27.41
2022-09-12T14:14:40.520Z,27.57
2022-09-12T14:17:24.102Z,27.69
2022-09-12T14:19:52.845Z,27.40
2022-09-12T14:22:19.735Z,27.95
2022-09-12T14:24:51.813Z,27.49
2022-09-12T14:27:28.720Z,27.16
2022-09-12T14:30:22.674Z,27.47
2022-09-12T14:33:10.438Z,27.81
2022-09-12T14:35:43.127Z,27.54
2022-09-12T14:38:09.959Z,27.60
2022-09-12T14:41:01.266Z,27.34
2022-09-12T14:43:34.902Z,27.19
2022-09-12T14:46:15.899Z,27.24
2022-09-12T14:49:27.699Z,27.37
2022-09-12T14:51:56.271Z,27.40
2022-09-12T14:54:37.361Z,27.11
2022-09-12T14:57:07.378Z,27.31
2022-09-12T14:59:40.887Z,27.22
2022-09-12T15:02:14.304Z,26.99
2022-09-12T15:04:43.195Z,27.02
2022-09-12T15:07:22.655Z,26.97
2022-09-12T15:09:49.733Z,27.27
2022-09-12T15:12:16.481Z,27.31
2022-09-12T15:14:43.021Z,27.12
2022-09-12T15:17:09.570Z,27.22
2022-09-12T15:19:36.108Z,27.16
2022-09-12T15:22:02.685Z,26.98
2022-09-12T15:24:29.321Z,27.24
2022-09-12T15:26:56.845Z,27.13
2022-09-12T15:29:23.345Z,27.26
2022-09-12T15:31:51.599Z,27.28
2022-09-12T15:34:18.222Z,27.63
2022-09-12T15:36:44.734Z,27.37
2022-09-12T15:39:12.005Z,27.56
2022-09-12T15:41:39.045Z,27.07
2022-09-12T15:44:15.285Z,27.40
2022-09-12T15:46:42.195Z,27.15
2022-09-12T15:49:08.835Z,27.16
2022-09-12T15:51:35.799Z,27.12
2022-09-12T15:54:04.292Z,27.30
2022-09-12T15:56:30.780Z,26.75
2022-09-12T15:58:59.870Z,26.77
2022-09-12T16:01:28.397Z,26.75
2022-09-12T16:03:55.483Z,26.75
2022-09-12T16:06:22.423Z,26.99
2022-09-12T16:08:49.642Z,27.21
2022-09-12T16:11:26.945Z,27.27
2022-09-12T16:13:55.087Z,27.23
2022-09-12T16:16:22.111Z,27.36
2022-09-12T16:18:49.008Z,27.15
2022-09-12T16:21:16.100Z,26.99
2022-09-12T16:23:47.078Z,27.07
2022-09-12T16:26:14.030Z,27.23
2022-09-12T16:28:41.077Z,27.10
2022-09-12T16:31:10.494Z,27.05
2022-09-12T16:33:38.021Z,26.85
2022-09-12T16:36:13.364Z,26.72
2022-09-12T16:38:45.594Z,26.94
2022-09-12T16:41:13.066Z,26.97
2022-09-12T16:43:40.541Z,27.14
2022-09-12T16:46:12.731Z,27.26
2022-09-12T16:48:52.093Z,27.08
2022-09-12T16:51:21.534Z,27.10
2022-09-12T16:53:49.103Z,27.14
2022-09-12T16:56:16.673Z,26.79
2022-09-12T16:58:43.685Z,27.12
2022-09-12T17:03:40.431Z,26.80
2022-09-12T17:06:12.633Z,26.75
2022-09-12T17:08:41.542Z,26.87
2022-09-12T17:11:13.614Z,26.97
2022-09-12T17:14:03.207Z,26.93
2022-09-12T17:16:28.866Z,27.08
2022-09-12T17:18:55.682Z,27.01
2022-09-12T17:21:25.384Z,26.56
2022-09-12T17:23:51.939Z,26.88
2022-09-12T17:26:18.624Z,26.84
2022-09-12T17:28:45.196Z,27.04
2022-09-12T17:31:14.472Z,26.76
2022-09-12T17:33:41.367Z,26.95
2022-09-12T17:36:11.446Z,26.78
2022-09-12T17:38:39.840Z,26.72
2022-09-12T17:41:18.217Z,26.84
2022-09-12T17:43:52.778Z,26.71
2022-09-12T17:46:20.085Z,27.01
2022-09-12T17:48:54.543Z,26.71
2022-09-12T17:51:22.903Z,26.72
2022-09-12T17:53:49.444Z,26.63
2022-09-12T17:56:16.018Z,26.73
2022-09-12T17:58:42.497Z,26.32
2022-09-12T18:01:33.735Z,26.51
2022-09-12T18:04:01.322Z,26.38
2022-09-12T18:06:29.127Z,26.57
2022-09-12T18:08:55.658Z,26.53
2022-09-12T18:11:22.213Z,26.40
2022-09-12T18:13:49.068Z,26.48
2022-09-12T18:16:16.037Z,26.35
2022-09-12T18:18:43.370Z,26.32
2022-09-12T18:21:11.589Z,26.63
2022-09-12T18:23:38.207Z,26.44
2022-09-12T18:26:10.779Z,26.47
2022-09-12T18:28:39.766Z,26.44
2022-09-12T18:31:16.009Z,26.39
2022-09-12T18:33:43.001Z,26.34
2022-09-12T18:36:12.070Z,26.43
2022-09-12T18:38:39.869Z,26.11
2022-09-12T18:41:11.694Z,26.35
2022-09-12T18:43:38.774Z,26.17
2022-09-12T18:46:07.281Z,26.05
2022-09-12T18:48:34.290Z,26.11
2022-09-12T18:51:12.240Z,26.13
2022-09-12T18:53:39.211Z,26.09
2022-09-12T18:56:11.012Z,26.34
2022-09-12T18:58:40.555Z,26.26
2022-09-12T19:01:15.985Z,26.12
2022-09-12T19:03:43.414Z,25.97
2022-09-12T19:06:12.562Z,25.90
2022-09-12T19:08:40.362Z,26.25
2022-09-12T19:11:08.074Z,26.13
2022-09-12T19:13:37.034Z,26.00
2022-09-12T19:16:05.725Z,25.85
2022-09-12T19:18:34.042Z,25.87
2022-09-12T19:21:01.442Z,25.86
2022-09-12T19:23:30.529Z,25.67
2022-09-12T19:25:58.944Z,25.49
2022-09-12T19:28:25.671Z,25.72
2022-09-12T19:30:53.852Z,25.85
2022-09-12T19:33:21.494Z,25.64
2022-09-12T19:35:50.160Z,25.69
2022-09-12T19:38:17.555Z,25.41
2022-09-12T19:40:44.195Z,25.53
2022-09-12T19:43:11.260Z,25.61
2022-09-12T19:45:38.382Z,25.85
2022-09-12T19:48:05.051Z,25.48
2022-09-12T19:50:33.541Z,25.77
2022-09-12T19:53:00.397Z,25.65
2022-09-12T19:55:27.134Z,25.58
2022-09-12T19:57:54.291Z,25.45
2022-09-12T20:00:22.946Z,25.27
2022-09-12T20:02:53.611Z,25.55
2022-09-12T20:05:23.419Z,25.63
2022-09-12T20:07:50.222Z,25.40
2022-09-12T20:10:16.806Z,25.53
2022-09-12T20:12:43.460Z,25.74
2022-09-12T20:15:12.047Z,25.88
2022-09-12T20:17:40.106Z,25.81
2022-09-12T20:20:08.973Z,24.74
2022-09-12T20:22:39.891Z,25.38
2022-09-12T20:25:07.182Z,25.35
2022-09-12T20:27:34.022Z,25.45
2022-09-12T20:30:00.585Z,25.43
2022-09-12T20:32:28.962Z,25.25
2022-09-12T20:34:59.742Z,25.26
2022-09-12T20:37:26.186Z,25.11
2022-09-12T20:39:57.524Z,25.09
2022-09-12T20:42:24.073Z,25.28
2022-09-12T20:44:54.999Z,25.29
2022-09-12T20:47:22.348Z,25.28
2022-09-12T20:49:51.456Z,25.09
2022-09-12T20:52:21.652Z,25.24
2022-09-12T20:54:48.227Z,25.19
2022-09-12T20:57:17.604Z,25.25
2022-09-12T20:59:44.180Z,25.24
2022-09-12T21:02:16.218Z,25.11
2022-09-12T21:04:43.019Z,25.10
2022-09-12T21:07:11.022Z,25.08
2022-09-12T21:09:37.726Z,24.77
2022-09-12T21:12:04.602Z,25.12
2022-09-12T21:14:31.191Z,25.26
2022-09-12T21:16:57.866Z,25.47
2022-09-12T21:19:24.547Z,25.28
2022-09-12T21:21:51.108Z,25.09
2022-09-12T21:24:17.759Z,25.00
2022-09-12T21:26:49.917Z,24.78
2022-09-12T21:29:19.739Z,24.73
2022-09-12T21:31:46.215Z,24.65
2022-09-12T21:34:12.894Z,24.55
2022-09-12T21:36:39.496Z,24.62
2022-09-12T21:39:06.426Z,24.58
2022-09-12T21:41:32.993Z,24.56
2022-09-12T21:43:59.517Z,24.53
2022-09-12T21:46:26.185Z,24.53
2022-09-12T21:48:52.760Z,24.49
2022-09-12T21:51:19.263Z,23.83
2022-09-12T21:53:45.839Z,24.28
2022-09-12T21:56:12.582Z,23.65
2022-09-12T21:58:39.321Z,24.22
2022-09-12T22:01:06.229Z,24.15
2022-09-12T22:03:33.103Z,23.99
2022-09-12T22:06:01.669Z,23.76
2022-09-12T22:08:29.799Z,23.16
2022-09-12T22:11:02.122Z,23.81
2022-09-12T22:13:31.451Z,23.82
2022-09-12T22:15:58.564Z,23.82
2022-09-12T22:18:25.986Z,23.86
2022-09-12T22:21:00.033Z,23.82
2022-09-12T22:23:47.485Z,23.66
2022-09-12T22:26:14.276Z,23.72
2022-09-12T22:28:41.325Z,23.57
2022-09-12T22:31:12.221Z,23.75
2022-09-12T22:33:42.215Z,23.34
2022-09-12T22:36:09.941Z,23.36
2022-09-12T22:38:36.563Z,23.68
2022-09-12T22:41:09.446Z,23.54
2022-09-12T22:43:37.239Z,23.43
2022-09-12T22:46:12.585Z,23.62
2022-09-12T22:48:39.658Z,23.58
2022-09-12T22:51:08.256Z,23.11
2022-09-12T22:53:38.555Z,23.61
2022-09-12T22:56:05.813Z,23.55
2022-09-12T22:58:34.694Z,23.64
2022-09-12T23:01:01.340Z,23.42
2022-09-12T23:03:28.116Z,23.57
2022-09-12T23:05:54.722Z,23.60
2022-09-12T23:08:21.293Z,23.49
2022-09-12T23:10:48.163Z,23.15
2022-09-12T23:13:15.020Z,23.41
2022-09-12T23:15:41.624Z,22.90
2022-09-12T23:18:08.524Z,23.28
2022-09-12T23:20:35.185Z,23.43
2022-09-12T23:23:02.319Z,23.16
2022-09-12T23:25:28.943Z,23.11
2022-09-12T23:27:55.492Z,23.37
2022-09-12T23:30:21.993Z,23.34
2022-09-12T23:32:49.268Z,23.15
2022-09-12T23:35:19.690Z,22.63
2022-09-12T23:37:47.255Z,23.24
2022-09-12T23:40:13.936Z,22.90
2022-09-12T23:42:40.531Z,23.33
2022-09-12T23:45:07.669Z,23.18
2022-09-12T23:47:34.220Z,23.20
2022-09-12T23:50:00.855Z,23.29
2022-09-12T23:52:27.400Z,23.20
2022-09-12T23:54:54.025Z,22.86
2022-09-12T23:57:20.687Z,22.88
2022-09-12T23:59:47.193Z,23.29
